Terminal Aerodrome Forecast
Issued by NWS

Home | Current Version | Previous Version | Text Only | Print | Product List | Glossary On
Versions: 1 2 3 4 5 6 7 8 9 10 11 12 13 14 15 16 17 18 19 20 21 22 23 24 25 26 27 28 29 30 31 32
000
FTUS41 KBOX 010527
TAFACK
TAF
KACK 010527Z 0106/0206 31021G28KT P6SM SKC
     FM011600 30015KT P6SM SCT130
     FM012000 30013KT P6SM BKN110
     FM020100 32008KT P6SM BKN090
     FM020500 01006KT P6SM OVC060=

USA.gov is the U.S. government's official web portal to all federal, state and local government web resources and services.